Time;durP1;ratioP1;P1;durP2;ratioP2;P2;SDS_P1;SDS_P2;PMS_P1;PMS_P2;Temp;Humidity;BMP_temperature;BMP_pressure;BME280_temperature;BME280_humidity;BME280_pressure;Samples;Min_cycle;Max_cycle;Signal;HPM_P1;HPM_P2
2021/12/14 00:01:40;;;;;;;3.10;1.60;;;;;;;;;;5090810;28;20079;-68
2021/12/14 00:04:16;;;;;;;2.55;1.50;;;;;;;;;;5090680;28;20135;-68
2021/12/14 00:06:43;;;;;;;2.40;1.30;;;;;;;;;;5090166;28;20097;-69
2021/12/14 00:09:12;;;;;;;3.90;1.40;;;;;;;;;;5090523;28;20048;-68
2021/12/14 00:16:51;;;;;;;2.63;1.40;;;;;;;;;;5090136;28;20047;-68
2021/12/14 00:19:19;;;;;;;2.53;1.35;;;;;;;;;;5090616;28;20054;-68
2021/12/14 00:21:50;;;;;;;2.05;1.50;;;;;;;;;;5090325;28;20050;-68
2021/12/14 00:24:17;;;;;;;3.38;1.48;;;;;;;;;;5090478;28;20069;-68
2021/12/14 00:26:48;;;;;;;2.30;1.42;;;;;;;;;;5089886;28;20048;-68
2021/12/14 00:29:19;;;;;;;4.28;1.63;;;;;;;;;;5089319;28;20135;-68
2021/12/14 00:31:46;;;;;;;3.22;1.55;;;;;;;;;;5090792;28;20040;-68
2021/12/14 00:34:21;;;;;;;16.05;1.80;;;;;;;;;;5090573;28;20052;-66
2021/12/14 00:36:47;;;;;;;3.58;1.30;;;;;;;;;;5090534;28;20066;-66
2021/12/14 00:39:13;;;;;;;6.25;1.58;;;;;;;;;;5090657;28;20523;-67
2021/12/14 00:41:40;;;;;;;3.17;1.30;;;;;;;;;;5090718;28;20409;-67
2021/12/14 00:44:06;;;;;;;6.03;1.70;;;;;;;;;;5089826;28;20409;-67
2021/12/14 00:46:35;;;;;;;6.82;1.90;;;;;;;;;;5089923;28;20084;-68
2021/12/14 00:49:01;;;;;;;3.33;1.50;;;;;;;;;;5089481;28;20061;-68
2021/12/14 00:51:28;;;;;;;5.47;1.42;;;;;;;;;;5089898;28;20044;-68
2021/12/14 00:53:56;;;;;;;5.68;1.65;;;;;;;;;;5089701;28;20048;-67
2021/12/14 00:56:22;;;;;;;5.05;1.48;;;;;;;;;;5089889;28;20051;-67
2021/12/14 00:58:48;;;;;;;4.05;1.67;;;;;;;;;;5089091;28;20052;-67
2021/12/14 01:01:17;;;;;;;3.67;1.50;;;;;;;;;;5090373;28;20044;-67
2021/12/14 01:03:45;;;;;;;2.45;1.45;;;;;;;;;;5090423;28;20134;-67
2021/12/14 01:06:11;;;;;;;6.32;1.60;;;;;;;;;;5089977;28;20130;-67
2021/12/14 01:08:40;;;;;;;2.55;1.60;;;;;;;;;;5089983;28;20059;-68
2021/12/14 01:11:11;;;;;;;3.88;1.48;;;;;;;;;;5090026;28;20431;-68
2021/12/14 01:13:42;;;;;;;3.20;1.40;;;;;;;;;;5089755;28;20505;-67
2021/12/14 01:16:18;;;;;;;3.85;1.55;;;;;;;;;;5089527;28;20124;-67
2021/12/14 01:19:01;;;;;;;3.88;1.30;;;;;;;;;;5088700;28;20074;-67
2021/12/14 01:21:46;;;;;;;2.42;1.33;;;;;;;;;;5089248;28;20100;-67
2021/12/14 01:24:24;;;;;;;3.08;1.20;;;;;;;;;;5089274;28;20500;-68
2021/12/14 01:26:50;;;;;;;4.03;1.65;;;;;;;;;;5089129;28;20567;-67
2021/12/14 01:29:18;;;;;;;2.17;1.30;;;;;;;;;;5087142;28;20055;-67
2021/12/14 01:31:47;;;;;;;2.35;1.45;;;;;;;;;;5089198;28;20048;-68
2021/12/14 01:34:18;;;;;;;3.93;1.50;;;;;;;;;;5087724;28;20048;-66
2021/12/14 01:36:49;;;;;;;2.08;1.40;;;;;;;;;;5089281;28;20416;-68
2021/12/14 01:41:43;;;;;;;3.47;1.40;;;;;;;;;;5089414;28;20446;-68
2021/12/14 01:44:10;;;;;;;3.35;1.10;;;;;;;;;;5089641;28;20040;-68
2021/12/14 01:46:41;;;;;;;3.00;1.75;;;;;;;;;;5089522;28;20413;-67
2021/12/14 01:49:08;;;;;;;2.25;1.35;;;;;;;;;;5089445;28;20076;-68
2021/12/14 01:51:38;;;;;;;2.13;1.40;;;;;;;;;;5089344;28;20131;-68
2021/12/14 01:54:05;;;;;;;3.67;1.80;;;;;;;;;;5088938;28;20647;-67
2021/12/14 01:56:32;;;;;;;2.75;1.58;;;;;;;;;;5089130;28;20040;-67
2021/12/14 01:59:00;;;;;;;2.40;1.30;;;;;;;;;;5089273;28;20429;-68
2021/12/14 02:01:36;;;;;;;2.45;1.40;;;;;;;;;;5089564;28;20040;-67
2021/12/14 02:04:14;;;;;;;2.33;1.38;;;;;;;;;;5089313;28;20387;-67
2021/12/14 02:06:40;;;;;;;2.80;1.48;;;;;;;;;;5089152;28;20048;-66
2021/12/14 02:09:08;;;;;;;5.35;1.67;;;;;;;;;;5088808;28;20079;-66
2021/12/14 02:11:35;;;;;;;2.38;1.33;;;;;;;;;;5089332;28;20476;-67
2021/12/14 02:14:03;;;;;;;2.55;1.30;;;;;;;;;;5089347;28;20075;-68
2021/12/14 02:16:29;;;;;;;4.03;2.17;;;;;;;;;;5088564;28;20144;-68
2021/12/14 02:19:00;;;;;;;3.92;1.70;;;;;;;;;;5089114;28;20044;-68
2021/12/14 02:21:26;;;;;;;4.68;1.50;;;;;;;;;;5088995;28;20048;-68
2021/12/14 02:23:54;;;;;;;4.45;1.70;;;;;;;;;;5088584;28;20047;-69
2021/12/14 02:26:21;;;;;;;2.30;1.50;;;;;;;;;;5088940;28;20084;-68
2021/12/14 02:28:47;;;;;;;5.20;1.60;;;;;;;;;;5087878;28;20048;-68
2021/12/14 02:31:15;;;;;;;3.58;1.40;;;;;;;;;;5088608;28;20412;-67
2021/12/14 02:33:42;;;;;;;4.32;1.30;;;;;;;;;;5088867;28;20079;-66
2021/12/14 02:36:10;;;;;;;3.97;1.60;;;;;;;;;;5087585;28;20409;-66
2021/12/14 02:38:43;;;;;;;4.72;1.83;;;;;;;;;;5088948;28;20044;-67
2021/12/14 02:41:09;;;;;;;3.33;1.58;;;;;;;;;;5088871;28;20040;-67
2021/12/14 02:43:35;;;;;;;2.42;1.55;;;;;;;;;;5088996;28;20044;-67
2021/12/14 02:46:07;;;;;;;2.17;1.50;;;;;;;;;;5088232;28;20158;-67
2021/12/14 02:48:33;;;;;;;3.10;1.52;;;;;;;;;;5088863;28;20428;-67
2021/12/14 02:51:26;;;;;;;2.33;1.40;;;;;;;;;;5088913;28;20052;-67
2021/12/14 02:53:53;;;;;;;2.40;1.25;;;;;;;;;;5086872;28;20212;-67
2021/12/14 02:56:22;;;;;;;2.45;1.40;;;;;;;;;;5088008;28;20093;-67
2021/12/14 02:58:49;;;;;;;9.25;1.88;;;;;;;;;;5088670;28;20105;-67
2021/12/14 03:01:16;;;;;;;2.58;1.40;;;;;;;;;;5088963;28;20616;-67
2021/12/14 03:03:43;;;;;;;3.55;1.45;;;;;;;;;;5088677;28;20513;-67
2021/12/14 03:06:11;;;;;;;2.95;1.30;;;;;;;;;;5088550;28;20044;-67
2021/12/14 03:08:44;;;;;;;6.47;2.28;;;;;;;;;;5088723;28;20539;-67
2021/12/14 03:11:12;;;;;;;2.30;1.50;;;;;;;;;;5090403;28;20048;-67
2021/12/14 03:13:51;;;;;;;2.60;1.60;;;;;;;;;;5092253;28;20513;-67
2021/12/14 03:16:24;;;;;;;1.60;1.27;;;;;;;;;;5091994;28;20044;-67
2021/12/14 03:18:51;;;;;;;2.90;1.20;;;;;;;;;;5092453;28;20105;-67
2021/12/14 03:21:19;;;;;;;4.07;1.38;;;;;;;;;;5092357;28;20126;-68
2021/12/14 03:23:46;;;;;;;3.22;1.20;;;;;;;;;;5092211;28;20044;-68
2021/12/14 03:26:15;;;;;;;2.70;1.70;;;;;;;;;;5091619;28;20047;-68
2021/12/14 03:28:45;;;;;;;4.55;1.40;;;;;;;;;;5091845;28;20044;-68
2021/12/14 03:31:11;;;;;;;3.45;1.48;;;;;;;;;;5091927;28;20044;-68
2021/12/14 03:33:40;;;;;;;4.43;1.73;;;;;;;;;;5091856;28;20109;-68
2021/12/14 03:36:08;;;;;;;2.97;1.40;;;;;;;;;;5091847;28;20553;-68
2021/12/14 03:38:34;;;;;;;3.13;1.30;;;;;;;;;;5091344;28;20490;-68
2021/12/14 03:41:02;;;;;;;3.83;1.40;;;;;;;;;;5090533;28;20051;-68
2021/12/14 03:43:28;;;;;;;2.40;1.40;;;;;;;;;;5092251;28;20134;-68
2021/12/14 03:45:55;;;;;;;2.50;1.30;;;;;;;;;;5091955;28;20044;-68
2021/12/14 03:48:23;;;;;;;7.95;1.67;;;;;;;;;;5091512;28;20568;-68
2021/12/14 03:50:49;;;;;;;4.57;1.55;;;;;;;;;;5091502;28;20102;-65
2021/12/14 03:53:18;;;;;;;4.50;1.60;;;;;;;;;;5091101;28;20571;-66
2021/12/14 03:55:45;;;;;;;5.10;1.55;;;;;;;;;;5091191;28;20119;-67
2021/12/14 03:58:13;;;;;;;5.55;1.70;;;;;;;;;;5091463;28;20387;-68
2021/12/14 04:00:41;;;;;;;9.75;1.95;;;;;;;;;;5091327;28;20435;-67
2021/12/14 04:03:11;;;;;;;4.32;1.80;;;;;;;;;;5091679;28;20507;-67
2021/12/14 04:05:38;;;;;;;6.47;1.90;;;;;;;;;;5091411;28;20048;-67
2021/12/14 04:08:04;;;;;;;4.25;1.40;;;;;;;;;;5091188;28;20044;-67
2021/12/14 04:10:32;;;;;;;2.25;1.35;;;;;;;;;;5089210;28;20059;-67
2021/12/14 04:12:58;;;;;;;4.00;1.40;;;;;;;;;;5091054;28;20048;-67
2021/12/14 04:15:25;;;;;;;3.00;1.38;;;;;;;;;;5091249;28;20489;-67
2021/12/14 04:17:51;;;;;;;3.42;1.52;;;;;;;;;;5090883;28;20116;-67
2021/12/14 04:20:23;;;;;;;2.45;1.35;;;;;;;;;;5090804;28;20052;-67
2021/12/14 04:22:49;;;;;;;5.07;1.45;;;;;;;;;;5089828;28;20048;-66
2021/12/14 04:25:18;;;;;;;2.72;1.55;;;;;;;;;;5091048;28;20390;-67
2021/12/14 04:27:44;;;;;;;3.92;1.50;;;;;;;;;;5090963;28;20747;-67
2021/12/14 04:30:13;;;;;;;4.45;1.50;;;;;;;;;;5090161;28;20048;-67
2021/12/14 04:32:39;;;;;;;3.53;1.30;;;;;;;;;;5090986;28;20290;-67
2021/12/14 04:35:06;;;;;;;2.75;1.50;;;;;;;;;;5090671;28;20377;-67
2021/12/14 04:37:38;;;;;;;7.03;1.65;;;;;;;;;;5090412;28;20086;-67
2021/12/14 04:40:25;;;;;;;4.50;1.50;;;;;;;;;;5090415;28;20086;-67
2021/12/14 04:53:58;;;;;;;1.85;1.40;;;;;;;;;;5090430;28;20140;-67
2021/12/14 04:56:29;;;;;;;2.28;1.30;;;;;;;;;;5090017;28;20078;-67
2021/12/14 04:58:58;;;;;;;2.58;1.48;;;;;;;;;;5090030;28;20040;-67
2021/12/14 05:01:24;;;;;;;2.50;1.20;;;;;;;;;;5089521;28;20047;-67
2021/12/14 05:03:50;;;;;;;2.25;1.20;;;;;;;;;;5088958;28;20157;-67
2021/12/14 05:06:17;;;;;;;3.15;1.50;;;;;;;;;;5089552;28;20052;-67
2021/12/14 05:11:14;;;;;;;3.45;1.50;;;;;;;;;;5088889;28;20040;-68
2021/12/14 05:13:44;;;;;;;5.95;1.77;;;;;;;;;;5089365;28;20056;-67
2021/12/14 05:16:16;;;;;;;3.83;1.70;;;;;;;;;;5088298;28;20451;-67
2021/12/14 05:18:47;;;;;;;2.85;1.40;;;;;;;;;;5088909;28;20067;-67
2021/12/14 05:21:13;;;;;;;3.08;1.55;;;;;;;;;;5089127;28;20040;-67
2021/12/14 05:23:39;;;;;;;2.00;1.40;;;;;;;;;;5089714;28;20126;-67
2021/12/14 05:26:07;;;;;;;7.13;1.80;;;;;;;;;;5089131;28;20085;-66
2021/12/14 05:28:33;;;;;;;5.40;1.70;;;;;;;;;;5088435;28;20040;-67
2021/12/14 05:30:59;;;;;;;5.00;1.65;;;;;;;;;;5089155;28;20059;-67
2021/12/14 05:33:30;;;;;;;4.95;1.70;;;;;;;;;;5088754;28;20044;-68
2021/12/14 05:35:58;;;;;;;2.85;1.58;;;;;;;;;;5089334;28;20048;-67
2021/12/14 05:38:39;;;;;;;7.25;1.52;;;;;;;;;;5089222;28;20126;-68
2021/12/14 05:43:51;;;;;;;3.90;1.50;;;;;;;;;;5089329;28;20048;-67
2021/12/14 05:46:20;;;;;;;2.85;1.42;;;;;;;;;;5089357;28;20079;-67
2021/12/14 05:48:46;;;;;;;3.33;1.38;;;;;;;;;;5088969;28;20051;-68
2021/12/14 05:51:12;;;;;;;3.47;1.75;;;;;;;;;;5089221;28;20512;-67
2021/12/14 05:53:40;;;;;;;4.68;1.60;;;;;;;;;;5087982;28;20051;-67
2021/12/14 05:56:08;;;;;;;5.40;1.40;;;;;;;;;;5089368;28;20047;-67
2021/12/14 05:58:34;;;;;;;2.45;1.40;;;;;;;;;;5088950;28;20040;-67
2021/12/14 06:01:03;;;;;;;2.92;1.50;;;;;;;;;;5089365;28;20090;-67
2021/12/14 06:03:31;;;;;;;4.60;1.30;;;;;;;;;;5089470;28;20040;-68
2021/12/14 06:05:58;;;;;;;2.65;1.40;;;;;;;;;;5089180;28;20436;-67
2021/12/14 06:08:26;;;;;;;2.03;1.33;;;;;;;;;;5088424;28;20047;-67
2021/12/14 06:10:53;;;;;;;2.58;1.50;;;;;;;;;;5089244;28;20059;-67
2021/12/14 06:13:20;;;;;;;2.75;1.23;;;;;;;;;;5089224;28;20436;-67
2021/12/14 06:15:46;;;;;;;2.00;1.60;;;;;;;;;;5088606;28;20044;-67
2021/12/14 06:18:13;;;;;;;5.05;1.50;;;;;;;;;;5089565;28;20040;-67
2021/12/14 06:20:43;;;;;;;2.13;1.20;;;;;;;;;;5089161;28;20048;-67
2021/12/14 06:23:09;;;;;;;2.30;1.30;;;;;;;;;;5089292;28;20146;-67
2021/12/14 06:25:35;;;;;;;2.90;1.13;;;;;;;;;;5089050;28;20517;-67
2021/12/14 06:28:02;;;;;;;4.18;1.55;;;;;;;;;;5087500;28;20054;-68
2021/12/14 06:30:31;;;;;;;2.30;1.40;;;;;;;;;;5088385;28;20569;-68
2021/12/14 06:33:00;;;;;;;3.10;1.40;;;;;;;;;;5087938;28;20048;-67
2021/12/14 06:35:30;;;;;;;1.95;1.20;;;;;;;;;;5087616;28;20523;-68
2021/12/14 06:38:09;;;;;;;;;;;;;;;;;;5088787;28;20501;-68
2021/12/14 06:40:35;;;;;;;;;;;;;;;;;;5088513;28;19920;-67
2021/12/14 06:43:08;;;;;;;9.45;1.52;;;;;;;;;;5088671;28;19919;-66
2021/12/14 06:45:45;;;;;;;3.47;1.92;;;;;;;;;;5088450;28;20044;-66
2021/12/14 06:48:20;;;;;;;4.38;1.52;;;;;;;;;;5091994;28;20047;-67
2021/12/14 06:50:48;;;;;;;6.70;1.48;;;;;;;;;;5092009;28;20081;-68
2021/12/14 06:53:16;;;;;;;4.13;1.60;;;;;;;;;;5091947;28;20052;-66
2021/12/14 06:55:42;;;;;;;5.03;1.60;;;;;;;;;;5092380;28;20105;-67
2021/12/14 06:58:14;;;;;;;5.78;1.60;;;;;;;;;;5092119;28;20482;-67
2021/12/14 07:00:43;;;;;;;3.55;1.70;;;;;;;;;;5092411;28;20044;-67
2021/12/14 07:03:09;;;;;;;3.22;1.40;;;;;;;;;;5091895;28;20052;-67
2021/12/14 07:05:35;;;;;;;5.50;1.70;;;;;;;;;;5091997;28;20048;-68
2021/12/14 07:08:08;;;;;;;2.42;1.30;;;;;;;;;;5090846;28;20339;-67
2021/12/14 07:10:36;;;;;;;4.47;1.40;;;;;;;;;;5091758;28;20063;-67
2021/12/14 07:13:09;;;;;;;3.63;1.50;;;;;;;;;;5091863;28;20497;-67
2021/12/14 07:15:36;;;;;;;3.80;1.42;;;;;;;;;;5091204;28;20343;-67
2021/12/14 07:18:04;;;;;;;4.15;1.70;;;;;;;;;;5091932;28;20536;-67
2021/12/14 07:20:36;;;;;;;3.77;1.50;;;;;;;;;;5090806;28;20118;-67
2021/12/14 07:23:17;;;;;;;6.82;1.40;;;;;;;;;;5091847;28;20422;-68
2021/12/14 07:25:43;;;;;;;2.40;1.50;;;;;;;;;;5091577;28;20047;-67
2021/12/14 07:28:10;;;;;;;4.07;1.52;;;;;;;;;;5091545;28;20138;-67
2021/12/14 07:30:44;;;;;;;2.30;1.40;;;;;;;;;;5091260;28;20040;-67
2021/12/14 07:33:12;;;;;;;5.22;1.77;;;;;;;;;;5090076;28;20394;-68
2021/12/14 07:35:56;;;;;;;2.38;1.60;;;;;;;;;;5091217;28;20040;-68
2021/12/14 07:38:26;;;;;;;1.90;1.40;;;;;;;;;;5090971;28;20540;-67
2021/12/14 07:40:54;;;;;;;2.88;1.70;;;;;;;;;;5091248;28;20486;-67
2021/12/14 07:43:22;;;;;;;2.50;1.45;;;;;;;;;;5091353;28;20414;-68
2021/12/14 07:45:50;;;;;;;2.20;1.70;;;;;;;;;;5091350;28;20601;-67
2021/12/14 07:48:17;;;;;;;2.75;1.58;;;;;;;;;;5091707;28;20048;-67
2021/12/14 07:50:43;;;;;;;2.60;1.35;;;;;;;;;;5090990;28;20063;-67
2021/12/14 07:53:10;;;;;;;2.60;1.42;;;;;;;;;;5091416;28;20044;-67
2021/12/14 07:55:44;;;;;;;5.07;1.60;;;;;;;;;;5091275;28;20465;-67
2021/12/14 07:58:10;;;;;;;6.13;1.70;;;;;;;;;;5091145;28;20044;-65
2021/12/14 08:00:40;;;;;;;8.55;2.10;;;;;;;;;;5091135;28;20105;-66
2021/12/14 08:03:07;;;;;;;5.82;2.17;;;;;;;;;;5090998;28;20449;-66
2021/12/14 08:05:35;;;;;;;4.32;1.90;;;;;;;;;;5091839;28;20401;-66
2021/12/14 08:08:09;;;;;;;4.65;1.75;;;;;;;;;;5091505;28;20469;-66
2021/12/14 08:10:39;;;;;;;3.92;2.00;;;;;;;;;;5091037;28;20052;-66
2021/12/14 08:13:05;;;;;;;3.47;1.80;;;;;;;;;;5090639;28;20123;-66
2021/12/14 08:15:34;;;;;;;4.97;2.20;;;;;;;;;;5088349;28;20406;-67
2021/12/14 08:18:05;;;;;;;3.50;2.13;;;;;;;;;;5085051;28;20493;-66
2021/12/14 08:20:31;;;;;;;3.75;2.00;;;;;;;;;;5086758;28;20048;-66
2021/12/14 08:23:10;;;;;;;5.57;2.25;;;;;;;;;;5089597;28;20394;-66
2021/12/14 08:25:36;;;;;;;6.15;2.67;;;;;;;;;;5090237;28;20421;-66
2021/12/14 08:28:05;;;;;;;6.82;2.75;;;;;;;;;;5091138;28;20444;-66
2021/12/14 08:30:32;;;;;;;6.85;2.50;;;;;;;;;;5090614;28;20048;-66
2021/12/14 08:32:58;;;;;;;7.40;2.58;;;;;;;;;;5090881;28;20526;-66
2021/12/14 08:35:24;;;;;;;8.68;3.10;;;;;;;;;;5090698;28;20113;-65
2021/12/14 08:37:57;;;;;;;6.55;3.08;;;;;;;;;;5090949;28;20039;-65
2021/12/14 08:40:25;;;;;;;9.35;2.47;;;;;;;;;;5090363;28;20047;-65
2021/12/14 08:43:06;;;;;;;5.00;2.30;;;;;;;;;;5090110;28;20482;-66
2021/12/14 08:45:36;;;;;;;11.88;3.08;;;;;;;;;;5089758;28;20418;-65
2021/12/14 08:48:08;;;;;;;5.88;2.47;;;;;;;;;;5089855;28;20052;-65
2021/12/14 08:50:37;;;;;;;8.13;2.65;;;;;;;;;;5090577;28;20417;-66
2021/12/14 08:53:08;;;;;;;11.02;2.50;;;;;;;;;;5090976;28;20131;-65
2021/12/14 08:55:36;;;;;;;6.25;3.13;;;;;;;;;;5090609;28;20490;-66
2021/12/14 08:58:03;;;;;;;6.32;2.55;;;;;;;;;;5090897;28;20049;-66
2021/12/14 09:00:32;;;;;;;7.80;2.38;;;;;;;;;;5088795;28;20036;-65
2021/12/14 09:03:00;;;;;;;5.60;3.03;;;;;;;;;;5088542;28;20044;-66
2021/12/14 09:05:28;;;;;;;6.80;2.47;;;;;;;;;;5085862;28;20048;-66
2021/12/14 09:07:55;;;;;;;4.57;2.50;;;;;;;;;;5089207;28;20052;-66
2021/12/14 09:10:22;;;;;;;5.65;2.70;;;;;;;;;;5086827;28;20486;-66
2021/12/14 09:12:50;;;;;;;8.80;3.08;;;;;;;;;;5079258;28;20044;-65
2021/12/14 09:15:25;;;;;;;5.97;3.03;;;;;;;;;;5067950;28;20049;-65
2021/12/14 09:17:53;;;;;;;8.48;3.20;;;;;;;;;;5068475;28;20464;-65
2021/12/14 09:20:22;;;;;;;8.07;3.22;;;;;;;;;;5088417;28;20044;-66
2021/12/14 09:22:50;;;;;;;9.43;3.65;;;;;;;;;;5088804;28;20173;-65
2021/12/14 09:25:18;;;;;;;8.65;4.35;;;;;;;;;;5088912;28;20395;-66
2021/12/14 09:27:44;;;;;;;8.98;4.20;;;;;;;;;;5088553;28;20513;-66
2021/12/14 09:30:12;;;;;;;8.63;4.45;;;;;;;;;;5089651;28;20044;-65
2021/12/14 09:32:39;;;;;;;9.77;5.28;;;;;;;;;;5089214;28;20043;-66
2021/12/14 09:35:07;;;;;;;12.52;5.47;;;;;;;;;;5088905;28;20086;-66
2021/12/14 09:37:34;;;;;;;8.43;5.13;;;;;;;;;;5089840;28;20051;-66
2021/12/14 09:40:02;;;;;;;8.95;4.95;;;;;;;;;;5089235;28;20036;-66
2021/12/14 09:42:30;;;;;;;10.00;5.30;;;;;;;;;;5078439;28;20420;-65
2021/12/14 09:44:58;;;;;;;9.70;5.95;;;;;;;;;;5088817;28;21047;-65
2021/12/14 09:47:29;;;;;;;8.65;5.85;;;;;;;;;;5089440;28;20070;-65
2021/12/14 09:49:56;;;;;;;10.55;5.93;;;;;;;;;;5089191;28;20490;-66
2021/12/14 09:52:24;;;;;;;14.35;7.00;;;;;;;;;;5089178;28;20093;-66
2021/12/14 09:54:50;;;;;;;11.40;6.63;;;;;;;;;;5089294;28;20044;-65
2021/12/14 09:57:36;;;;;;;10.40;6.65;;;;;;;;;;5089699;28;20048;-65
2021/12/14 10:00:08;;;;;;;13.20;6.63;;;;;;;;;;5089813;28;20039;-66
2021/12/14 10:02:37;;;;;;;14.48;7.55;;;;;;;;;;5089259;28;20082;-66
2021/12/14 10:05:14;;;;;;;13.63;7.53;;;;;;;;;;5089243;28;20360;-65
2021/12/14 10:07:40;;;;;;;13.27;7.15;;;;;;;;;;5089491;28;20381;-65
2021/12/14 10:10:12;;;;;;;13.25;7.53;;;;;;;;;;5089538;28;20060;-65
2021/12/14 10:15:13;;;;;;;16.77;8.10;;;;;;;;;;5089413;28;20052;-65
2021/12/14 10:17:40;;;;;;;13.40;7.65;;;;;;;;;;5089332;28;20051;-65
2021/12/14 10:20:12;;;;;;;13.77;8.05;;;;;;;;;;5089847;28;20048;-65
2021/12/14 10:22:38;;;;;;;13.27;7.75;;;;;;;;;;5093269;28;20405;-65
2021/12/14 10:25:09;;;;;;;11.68;7.70;;;;;;;;;;5093145;28;20040;-65
2021/12/14 10:27:36;;;;;;;11.88;7.43;;;;;;;;;;5093312;28;20402;-66
2021/12/14 10:30:05;;;;;;;11.23;7.35;;;;;;;;;;5093429;28;20044;-65
2021/12/14 10:32:32;;;;;;;12.65;7.25;;;;;;;;;;5091365;28;20462;-66
2021/12/14 10:35:04;;;;;;;13.27;7.40;;;;;;;;;;5090514;28;20054;-65
2021/12/14 10:37:49;;;;;;;13.20;7.65;;;;;;;;;;5083956;28;20480;-65
2021/12/14 10:43:38;;;;;;;13.13;7.50;;;;;;;;;;5086488;28;20051;-66
2021/12/14 10:46:04;;;;;;;12.13;7.80;;;;;;;;;;5092336;28;20414;-66
2021/12/14 10:48:32;;;;;;;14.43;7.20;;;;;;;;;;5092646;28;20474;-65
2021/12/14 10:51:00;;;;;;;13.48;6.93;;;;;;;;;;5092748;28;20044;-65
2021/12/14 10:53:26;;;;;;;11.43;7.35;;;;;;;;;;5091910;28;20044;-65
2021/12/14 10:55:54;;;;;;;11.35;7.03;;;;;;;;;;5092093;28;20567;-65
2021/12/14 10:58:22;;;;;;;10.23;7.55;;;;;;;;;;5092528;28;20087;-65
2021/12/14 11:00:54;;;;;;;13.07;7.78;;;;;;;;;;5092615;28;20075;-65
2021/12/14 11:03:22;;;;;;;9.75;6.63;;;;;;;;;;5092328;28;20040;-65
2021/12/14 11:05:52;;;;;;;12.98;7.38;;;;;;;;;;5092448;28;20044;-66
2021/12/14 11:08:36;;;;;;;11.43;6.95;;;;;;;;;;5092014;28;20130;-65
2021/12/14 11:11:05;;;;;;;12.68;7.18;;;;;;;;;;5092485;28;20570;-66
2021/12/14 11:13:44;;;;;;;12.00;6.60;;;;;;;;;;5092269;28;20055;-65
2021/12/14 11:16:17;;;;;;;13.02;7.07;;;;;;;;;;5092244;28;20403;-65
2021/12/14 11:18:44;;;;;;;11.85;6.50;;;;;;;;;;5090511;28;20641;-65
2021/12/14 11:21:13;;;;;;;12.68;6.72;;;;;;;;;;5092239;28;20411;-65
2021/12/14 11:23:43;;;;;;;11.25;6.40;;;;;;;;;;5092117;28;20135;-65
2021/12/14 11:26:17;;;;;;;12.02;6.93;;;;;;;;;;5091844;28;20032;-65
2021/12/14 11:28:49;;;;;;;9.88;6.43;;;;;;;;;;5091415;28;20048;-65
2021/12/14 11:31:22;;;;;;;10.68;6.57;;;;;;;;;;5091255;28;20058;-65
2021/12/14 11:33:51;;;;;;;10.32;6.30;;;;;;;;;;5091658;28;20048;-65
2021/12/14 11:36:24;;;;;;;10.77;6.35;;;;;;;;;;5091590;28;20410;-65
2021/12/14 11:38:53;;;;;;;10.95;6.40;;;;;;;;;;5091769;28;20047;-65
2021/12/14 11:41:24;;;;;;;11.68;6.90;;;;;;;;;;5091345;28;20522;-65
2021/12/14 11:43:57;;;;;;;10.57;6.68;;;;;;;;;;5091743;28;20043;-65
2021/12/14 11:46:24;;;;;;;9.63;6.40;;;;;;;;;;5091818;28;20048;-65
2021/12/14 11:48:50;;;;;;;9.27;5.90;;;;;;;;;;5090748;28;20086;-65
2021/12/14 11:51:16;;;;;;;11.63;6.05;;;;;;;;;;5090810;28;20044;-66
2021/12/14 11:53:52;;;;;;;10.93;6.22;;;;;;;;;;5091746;28;20043;-66
2021/12/14 11:56:19;;;;;;;11.57;6.40;;;;;;;;;;5090247;28;20048;-66
2021/12/14 11:58:45;;;;;;;9.52;5.72;;;;;;;;;;5090854;28;20405;-66
2021/12/14 12:01:14;;;;;;;13.07;6.85;;;;;;;;;;5091676;28;20079;-65
2021/12/14 12:03:41;;;;;;;9.50;5.70;;;;;;;;;;5091255;28;20046;-66
2021/12/14 12:06:25;;;;;;;8.98;5.80;;;;;;;;;;5089987;28;20505;-65
2021/12/14 12:11:42;;;;;;;14.48;5.78;;;;;;;;;;5090948;28;20079;-67
2021/12/14 12:14:43;;;;;;;10.50;5.90;;;;;;;;;;5091016;28;20052;-66
2021/12/14 12:17:28;;;;;;;14.50;5.47;;;;;;;;;;5088461;28;20037;-66
2021/12/14 12:19:58;;;;;;;13.60;5.22;;;;;;;;;;5091079;28;20153;-67
2021/12/14 12:22:26;;;;;;;14.52;5.75;;;;;;;;;;5090463;28;20052;-68
2021/12/14 12:24:54;;;;;;;12.55;6.03;;;;;;;;;;5091345;28;20050;-67
2021/12/14 12:27:29;;;;;;;13.13;5.82;;;;;;;;;;5091318;28;20054;-67
2021/12/14 12:30:05;;;;;;;9.88;5.10;;;;;;;;;;5089892;28;20051;-67
2021/12/14 12:32:31;;;;;;;16.70;5.30;;;;;;;;;;5090886;28;20044;-66
2021/12/14 12:34:57;;;;;;;15.98;6.18;;;;;;;;;;5090474;28;20108;-66
2021/12/14 12:37:40;;;;;;;11.13;5.10;;;;;;;;;;5090749;28;20043;-67
2021/12/14 12:40:09;;;;;;;10.10;5.40;;;;;;;;;;5090852;28;20673;-67
2021/12/14 12:42:35;;;;;;;11.10;5.50;;;;;;;;;;5090551;28;20575;-67
2021/12/14 12:45:01;;;;;;;11.90;4.70;;;;;;;;;;5089816;28;20040;-67
2021/12/14 12:47:27;;;;;;;6.90;4.63;;;;;;;;;;5089629;28;20166;-67
2021/12/14 12:49:58;;;;;;;9.43;4.70;;;;;;;;;;5090592;28;20542;-67
2021/12/14 12:52:37;;;;;;;8.10;4.95;;;;;;;;;;5090550;28;20044;-68
2021/12/14 12:55:05;;;;;;;10.70;4.80;;;;;;;;;;5090799;28;20100;-67
2021/12/14 12:57:44;;;;;;;10.60;5.43;;;;;;;;;;5090217;28;20399;-68
2021/12/14 13:00:15;;;;;;;9.90;4.53;;;;;;;;;;5090580;28;20047;-67
2021/12/14 13:02:46;;;;;;;11.38;5.55;;;;;;;;;;5089905;28;20189;-66
2021/12/14 13:05:34;;;;;;;11.30;5.25;;;;;;;;;;5090126;28;20047;-68
2021/12/14 13:08:03;;;;;;;10.13;5.10;;;;;;;;;;5069735;28;20550;-67
2021/12/14 13:10:35;;;;;;;9.75;4.75;;;;;;;;;;5085609;28;20421;-68
2021/12/14 13:13:07;;;;;;;9.43;4.82;;;;;;;;;;5089514;28;20052;-68
2021/12/14 13:15:48;;;;;;;9.98;4.50;;;;;;;;;;5087956;28;20052;-67
2021/12/14 13:18:33;;;;;;;10.38;4.70;;;;;;;;;;5089465;28;20047;-68
2021/12/14 13:21:15;;;;;;;7.78;4.45;;;;;;;;;;5089007;28;20277;-67
2021/12/14 13:23:47;;;;;;;8.00;4.57;;;;;;;;;;5089659;28;20055;-67
2021/12/14 13:26:34;;;;;;;8.55;5.10;;;;;;;;;;5089461;28;20071;-67
2021/12/14 13:29:12;;;;;;;8.35;4.90;;;;;;;;;;5089081;28;20520;-67
2021/12/14 13:31:40;;;;;;;8.98;4.82;;;;;;;;;;5089389;28;20066;-66
2021/12/14 13:34:08;;;;;;;10.07;4.40;;;;;;;;;;5089142;28;20047;-68
2021/12/14 13:36:34;;;;;;;7.13;4.70;;;;;;;;;;5088962;28;20058;-67
2021/12/14 13:39:01;;;;;;;8.98;4.88;;;;;;;;;;5089288;28;20044;-68
2021/12/14 13:41:47;;;;;;;8.20;4.50;;;;;;;;;;5089516;28;20520;-67
2021/12/14 13:44:14;;;;;;;10.57;4.72;;;;;;;;;;5089319;28;20048;-67
2021/12/14 13:46:40;;;;;;;7.57;4.55;;;;;;;;;;5088366;28;20476;-67
2021/12/14 13:49:06;;;;;;;8.70;4.53;;;;;;;;;;5089458;28;20055;-65
2021/12/14 13:51:32;;;;;;;13.43;4.70;;;;;;;;;;5089767;28;20048;-67
2021/12/14 13:53:58;;;;;;;7.28;4.38;;;;;;;;;;5089700;28;20178;-68
2021/12/14 13:56:29;;;;;;;8.85;4.57;;;;;;;;;;5089333;28;20517;-68
2021/12/14 13:58:58;;;;;;;11.77;4.28;;;;;;;;;;5089706;28;20409;-66
2021/12/14 14:01:32;;;;;;;8.48;4.10;;;;;;;;;;5087639;28;20410;-64
2021/12/14 14:04:01;;;;;;;10.55;4.78;;;;;;;;;;5089259;28;20036;-66
2021/12/14 14:06:29;;;;;;;11.55;4.07;;;;;;;;;;5089130;28;20080;-66
2021/12/14 14:08:55;;;;;;;12.48;3.80;;;;;;;;;;5087503;28;20052;-66
2021/12/14 14:11:24;;;;;;;8.70;3.63;;;;;;;;;;5088866;28;20502;-65
2021/12/14 14:13:51;;;;;;;9.20;4.00;;;;;;;;;;5089157;28;20123;-65
2021/12/14 14:16:17;;;;;;;9.52;3.50;;;;;;;;;;5089130;28;20413;-65
2021/12/14 14:18:54;;;;;;;8.07;3.60;;;;;;;;;;5089499;28;20051;-65
2021/12/14 14:21:27;;;;;;;9.77;4.43;;;;;;;;;;5088307;28;20488;-65
2021/12/14 14:23:57;;;;;;;6.70;3.58;;;;;;;;;;5085933;28;20109;-65
2021/12/14 14:26:35;;;;;;;6.40;3.33;;;;;;;;;;5089223;28;20032;-65
2021/12/14 14:29:12;;;;;;;7.88;3.67;;;;;;;;;;5089389;28;20054;-66
2021/12/14 14:31:44;;;;;;;9.15;3.75;;;;;;;;;;5085708;28;20040;-66
2021/12/14 14:34:18;;;;;;;10.52;4.07;;;;;;;;;;5069409;28;20067;-66
2021/12/14 14:36:45;;;;;;;9.30;3.92;;;;;;;;;;5083401;28;20497;-66
2021/12/14 14:39:14;;;;;;;5.22;3.38;;;;;;;;;;5088009;28;20497;-66
2021/12/14 14:41:42;;;;;;;6.28;3.42;;;;;;;;;;5088749;28;20088;-66
2021/12/14 14:44:13;;;;;;;7.70;3.55;;;;;;;;;;5088633;28;20044;-66
2021/12/14 14:46:39;;;;;;;7.45;3.67;;;;;;;;;;5087935;28;20052;-66
2021/12/14 14:49:09;;;;;;;6.93;3.95;;;;;;;;;;5088796;28;20498;-66
2021/12/14 14:51:53;;;;;;;6.18;3.30;;;;;;;;;;5088669;28;20036;-66
2021/12/14 14:54:29;;;;;;;8.00;3.88;;;;;;;;;;5068692;28;20098;-66
2021/12/14 14:56:55;;;;;;;8.35;3.47;;;;;;;;;;5073076;28;20040;-66
2021/12/14 14:59:21;;;;;;;6.07;3.42;;;;;;;;;;5087937;28;20569;-65
2021/12/14 15:01:47;;;;;;;6.43;3.33;;;;;;;;;;5089071;28;20406;-65
2021/12/14 15:04:13;;;;;;;7.93;3.30;;;;;;;;;;5089082;28;20514;-66
2021/12/14 15:06:42;;;;;;;9.30;3.75;;;;;;;;;;5089069;28;20040;-66
2021/12/14 15:09:21;;;;;;;7.23;3.67;;;;;;;;;;5091497;28;20417;-66
2021/12/14 15:11:51;;;;;;;6.00;3.45;;;;;;;;;;5092384;28;20470;-66
2021/12/14 15:14:26;;;;;;;7.68;3.55;;;;;;;;;;5074101;28;20620;-66
2021/12/14 15:17:00;;;;;;;4.68;3.20;;;;;;;;;;5072346;28;20041;-66
2021/12/14 15:19:29;;;;;;;6.28;3.05;;;;;;;;;;5086064;28;20092;-66
2021/12/14 15:21:57;;;;;;;6.18;3.22;;;;;;;;;;5092031;28;20410;-66
2021/12/14 15:24:26;;;;;;;4.82;3.17;;;;;;;;;;5091877;28;20048;-66
2021/12/14 15:27:07;;;;;;;6.72;3.47;;;;;;;;;;5091797;28;20494;-66
2021/12/14 15:29:35;;;;;;;8.02;3.33;;;;;;;;;;5091289;28;20083;-66